Time;durP1;ratioP1;P1;durP2;ratioP2;P2;SDS_P1;SDS_P2;PMS_P1;PMS_P2;Temp;Humidity;BMP_temperature;BMP_pressure;BME280_temperature;BME280_humidity;BME280_pressure;Samples;Min_cycle;Max_cycle;Signal;HPM_P1;HPM_P2
2023/01/23 00:00:18;;;;;;;3.53;3.33;;;1.80;98.70;;;;;;4995090;28;20347;-74
2023/01/23 00:02:45;;;;;;;4.25;3.95;;;1.80;98.20;;;;;;5010820;28;20235;-74
2023/01/23 00:05:12;;;;;;;4.15;3.85;;;1.80;98.50;;;;;;5024904;28;20306;-74
2023/01/23 00:07:40;;;;;;;4.50;4.10;;;1.70;98.30;;;;;;5030522;28;20308;-75
2023/01/23 00:10:10;;;;;;;3.85;3.65;;;1.70;98.10;;;;;;5024916;28;20307;-75
2023/01/23 00:12:41;;;;;;;3.60;3.38;;;1.80;97.80;;;;;;5011222;28;20195;-75
2023/01/23 00:15:09;;;;;;;3.60;3.40;;;1.80;98.00;;;;;;5027562;28;21009;-75
2023/01/23 00:17:36;;;;;;;4.22;4.03;;;1.80;98.20;;;;;;5028657;28;20302;-75
2023/01/23 00:20:04;;;;;;;4.15;3.95;;;1.80;98.40;;;;;;5031352;28;20247;-74
2023/01/23 00:22:31;;;;;;;3.90;3.70;;;1.70;98.40;;;;;;5028297;28;20542;-75
2023/01/23 00:24:58;;;;;;;3.90;3.70;;;1.70;98.40;;;;;;5010887;28;20246;-74
2023/01/23 00:27:27;;;;;;;3.90;3.70;;;1.70;98.80;;;;;;5027011;28;20298;-74
2023/01/23 00:29:55;;;;;;;4.30;3.97;;;1.70;98.70;;;;;;5029777;28;20307;-74
2023/01/23 00:32:22;;;;;;;3.53;3.33;;;1.70;98.80;;;;;;5024917;28;20202;-74
2023/01/23 00:34:49;;;;;;;3.78;3.58;;;1.70;99.10;;;;;;5023119;28;20247;-74
2023/01/23 00:37:17;;;;;;;3.63;3.42;;;1.70;99.00;;;;;;5028722;28;20307;-74
2023/01/23 00:39:45;;;;;;;4.10;3.90;;;1.70;98.90;;;;;;5012468;28;20250;-74
2023/01/23 00:42:12;;;;;;;3.58;3.38;;;1.70;98.80;;;;;;5027211;28;20212;-74
2023/01/23 00:44:41;;;;;;;3.60;3.40;;;1.80;99.30;;;;;;5028318;28;20243;-74
2023/01/23 00:47:08;;;;;;;4.25;4.05;;;1.80;98.50;;;;;;5026194;28;20247;-74
2023/01/23 00:49:35;;;;;;;4.15;3.85;;;1.90;98.60;;;;;;5027600;28;20223;-74
2023/01/23 00:52:02;;;;;;;4.40;4.10;;;2.10;98.30;;;;;;5007792;28;20286;-74
2023/01/23 00:54:29;;;;;;;3.78;3.58;;;2.10;98.00;;;;;;5029919;28;20203;-74
2023/01/23 00:56:57;;;;;;;4.32;4.07;;;2.10;98.50;;;;;;5025990;28;20310;-74
2023/01/23 00:59:24;;;;;;;4.13;3.92;;;1.90;99.00;;;;;;5027800;28;20214;-74
2023/01/23 01:01:52;;;;;;;3.80;3.55;;;1.70;99.30;;;;;;5027452;28;20229;-75
2023/01/23 01:04:19;;;;;;;3.50;3.25;;;1.60;99.50;;;;;;5028575;28;20231;-74
2023/01/23 01:06:46;;;;;;;4.18;3.97;;;1.50;99.60;;;;;;5027306;28;20648;-74
2023/01/23 01:09:13;;;;;;;4.35;4.10;;;1.60;99.80;;;;;;5024639;28;20227;-74
2023/01/23 01:11:40;;;;;;;4.78;4.47;;;1.60;99.20;;;;;;5028520;28;20196;-74
2023/01/23 01:14:08;;;;;;;4.25;4.05;;;1.70;99.20;;;;;;5030130;28;20283;-74
2023/01/23 01:16:36;;;;;;;3.78;3.58;;;1.80;99.20;;;;;;5028218;28;20285;-74
2023/01/23 01:19:04;;;;;;;4.40;4.10;;;1.80;99.00;;;;;;5027005;28;20282;-74
2023/01/23 01:21:31;;;;;;;4.50;4.20;;;1.80;99.10;;;;;;5025053;28;20330;-74
2023/01/23 01:23:59;;;;;;;4.57;4.28;;;1.70;99.20;;;;;;5022403;28;20739;-74
2023/01/23 01:26:26;;;;;;;4.10;3.80;;;1.70;99.30;;;;;;5008115;28;20535;-74
2023/01/23 01:28:53;;;;;;;4.25;4.05;;;1.60;99.30;;;;;;5027956;28;20234;-74
2023/01/23 01:31:20;;;;;;;5.18;4.13;;;1.60;99.50;;;;;;5025416;28;20243;-73
2023/01/23 01:33:48;;;;;;;4.43;4.13;;;1.50;99.60;;;;;;5027635;28;20282;-74
2023/01/23 01:36:18;;;;;;;4.45;4.15;;;1.50;99.90;;;;;;5022379;28;20319;-74
2023/01/23 01:38:45;;;;;;;4.60;4.30;;;1.50;99.90;;;;;;5007672;28;21016;-74
2023/01/23 01:41:13;;;;;;;4.38;4.07;;;1.50;99.90;;;;;;5024778;28;20315;-74
2023/01/23 01:43:40;;;;;;;4.13;3.88;;;1.50;99.90;;;;;;5006065;28;20676;-73
2023/01/23 01:46:16;;;;;;;3.72;3.53;;;1.50;99.90;;;;;;5027055;28;20310;-74
2023/01/23 01:48:47;;;;;;;4.43;4.15;;;1.50;99.90;;;;;;5025016;28;20231;-73
2023/01/23 01:51:21;;;;;;;4.70;4.40;;;1.50;99.90;;;;;;5023930;28;20255;-77
2023/01/23 01:53:55;;;;;;;4.40;4.20;;;1.50;99.90;;;;;;5025580;28;20754;-76
2023/01/23 01:56:23;;;;;;;3.97;3.78;;;1.60;99.90;;;;;;5006814;28;20602;-73
2023/01/23 01:58:52;;;;;;;4.00;3.70;;;1.60;99.90;;;;;;5028417;28;20261;-76
2023/01/23 02:01:19;;;;;;;3.65;3.35;;;1.60;99.90;;;;;;5028057;28;20310;-74
2023/01/23 02:03:49;;;;;;;4.40;4.15;;;1.60;99.90;;;;;;5009591;28;20227;-74
2023/01/23 02:06:18;;;;;;;3.92;3.72;;;1.70;99.90;;;;;;5022013;28;20256;-74
2023/01/23 02:08:53;;;;;;;3.85;3.63;;;1.70;99.90;;;;;;5008324;28;20676;-74
2023/01/23 02:11:20;;;;;;;3.88;3.67;;;1.80;99.90;;;;;;5026831;28;20304;-74
2023/01/23 02:13:47;;;;;;;3.80;3.60;;;1.80;99.80;;;;;;5014577;28;20673;-74
2023/01/23 02:16:19;;;;;;;3.95;3.75;;;1.80;99.90;;;;;;5007109;28;20278;-74
2023/01/23 02:18:52;;;;;;;4.38;4.18;;;1.80;99.90;;;;;;5026187;28;20196;-74
2023/01/23 02:21:23;;;;;;;4.32;4.13;;;1.80;99.80;;;;;;5009795;28;20242;-74
2023/01/23 02:24:02;;;;;;;4.30;4.10;;;1.80;99.80;;;;;;5027311;28;20196;-73
2023/01/23 02:26:35;;;;;;;4.55;4.15;;;1.80;99.90;;;;;;5024834;28;20258;-73
2023/01/23 02:29:03;;;;;;;4.22;4.03;;;1.80;99.70;;;;;;5028461;28;20219;-74
2023/01/23 02:31:30;;;;;;;4.18;3.97;;;1.80;99.80;;;;;;5028971;28;20338;-74
2023/01/23 02:33:58;;;;;;;4.35;4.15;;;1.80;99.90;;;;;;5027525;28;20728;-75
2023/01/23 02:36:27;;;;;;;3.70;3.50;;;1.80;99.60;;;;;;5026105;28;20575;-75
2023/01/23 02:39:02;;;;;;;4.80;4.50;;;1.80;99.50;;;;;;5030130;28;20295;-74
2023/01/23 02:41:32;;;;;;;4.38;4.07;;;1.90;99.60;;;;;;5012192;28;20660;-74
2023/01/23 02:44:03;;;;;;;4.07;3.70;;;1.90;99.80;;;;;;5011938;28;20961;-73
2023/01/23 02:46:30;;;;;;;4.80;4.50;;;1.90;99.60;;;;;;5029334;28;20255;-74
2023/01/23 02:48:57;;;;;;;3.97;3.78;;;1.90;99.70;;;;;;5031239;28;20277;-75
2023/01/23 02:51:24;;;;;;;4.35;4.15;;;1.80;99.80;;;;;;5029595;28;20318;-74
2023/01/23 02:53:51;;;;;;;4.13;3.92;;;1.90;99.90;;;;;;5029120;28;20250;-74
2023/01/23 02:56:19;;;;;;;4.28;3.97;;;1.90;99.80;;;;;;5012304;28;20688;-74
2023/01/23 03:01:34;;;;;;;4.30;4.10;;;1.90;99.60;;;;;;5028252;28;20234;-74
2023/01/23 03:04:03;;;;;;;4.10;3.90;;;2.00;99.90;;;;;;5023664;28;20200;-73
2023/01/23 03:06:35;;;;;;;4.43;4.13;;;2.00;99.80;;;;;;5027458;28;20280;-74
2023/01/23 03:09:04;;;;;;;4.32;4.13;;;2.00;99.50;;;;;;5029801;28;20200;-74
2023/01/23 03:11:32;;;;;;;4.32;4.03;;;2.00;99.40;;;;;;5013481;28;20633;-74
2023/01/23 03:14:01;;;;;;;4.47;4.18;;;2.00;99.30;;;;;;5027635;28;20203;-74
2023/01/23 03:16:28;;;;;;;4.38;4.07;;;2.10;99.20;;;;;;5028313;28;20227;-73
2023/01/23 03:19:00;;;;;;;4.25;4.05;;;2.10;99.10;;;;;;5031121;28;20214;-74
2023/01/23 03:21:27;;;;;;;4.40;4.20;;;2.10;99.10;;;;;;5028412;28;20249;-74
2023/01/23 03:23:54;;;;;;;3.97;3.58;;;2.10;99.00;;;;;;5028592;28;20656;-73
2023/01/23 03:26:21;;;;;;;3.92;3.72;;;2.10;99.30;;;;;;5032248;28;20321;-73
2023/01/23 03:31:34;;;;;;;3.72;3.53;;;2.10;99.40;;;;;;5027801;28;20326;-74
2023/01/23 03:34:01;;;;;;;4.32;4.03;;;2.00;99.40;;;;;;5028849;28;20207;-74
2023/01/23 03:36:28;;;;;;;3.65;3.45;;;2.00;99.50;;;;;;5025948;28;20273;-75
2023/01/23 03:41:40;;;;;;;3.60;3.40;;;1.90;99.90;;;;;;5027646;28;20214;-75
2023/01/23 03:44:08;;;;;;;4.05;3.85;;;1.90;99.90;;;;;;5013463;28;20661;-75
2023/01/23 03:46:37;;;;;;;4.00;3.80;;;1.90;99.90;;;;;;5009142;28;20231;-75
2023/01/23 03:49:04;;;;;;;3.85;3.55;;;1.90;99.60;;;;;;5027962;28;20253;-75
2023/01/23 03:51:32;;;;;;;4.15;3.95;;;1.90;99.50;;;;;;5028375;28;20255;-75
2023/01/23 03:53:59;;;;;;;4.25;4.00;;;1.90;99.40;;;;;;5011734;28;20214;-74
2023/01/23 03:56:26;;;;;;;4.43;4.13;;;1.90;99.40;;;;;;5025411;28;20918;-75
2023/01/23 03:58:54;;;;;;;4.75;4.45;;;1.90;99.40;;;;;;5027984;28;20206;-74
2023/01/23 04:01:22;;;;;;;4.43;4.13;;;1.80;99.30;;;;;;5028051;28;20243;-74
2023/01/23 04:03:51;;;;;;;4.72;4.43;;;1.80;99.30;;;;;;5028277;28;20783;-74
2023/01/23 04:06:18;;;;;;;4.60;4.30;;;1.80;99.50;;;;;;5029696;28;20247;-74
2023/01/23 04:08:45;;;;;;;4.60;4.30;;;1.80;99.40;;;;;;5029240;28;20250;-75
2023/01/23 04:11:13;;;;;;;4.45;4.15;;;1.80;99.30;;;;;;5027686;28;20314;-75
2023/01/23 04:13:40;;;;;;;4.25;4.05;;;1.80;99.30;;;;;;5023826;28;20223;-75
2023/01/23 04:16:08;;;;;;;5.05;4.72;;;1.90;99.20;;;;;;5012212;28;20585;-74
2023/01/23 04:18:35;;;;;;;4.32;4.03;;;1.90;99.30;;;;;;5027290;28;20258;-75
2023/01/23 04:21:04;;;;;;;4.32;4.13;;;1.90;99.50;;;;;;5028459;28;20293;-74
2023/01/23 04:23:31;;;;;;;3.65;3.45;;;1.80;99.70;;;;;;5027333;28;20657;-74
2023/01/23 04:25:58;;;;;;;4.50;4.20;;;1.80;99.90;;;;;;5026824;28;20693;-75
2023/01/23 04:28:25;;;;;;;4.15;3.95;;;1.80;99.80;;;;;;5026987;28;20274;-75
2023/01/23 04:30:53;;;;;;;4.03;3.83;;;1.80;99.90;;;;;;5027108;28;20386;-74
2023/01/23 04:33:20;;;;;;;4.28;4.07;;;1.70;99.90;;;;;;5028175;28;20228;-75
2023/01/23 04:35:53;;;;;;;3.95;3.75;;;1.70;99.90;;;;;;5025482;28;20338;-75
2023/01/23 04:38:21;;;;;;;4.28;3.88;;;1.60;99.90;;;;;;5007536;28;20524;-75
2023/01/23 04:40:50;;;;;;;3.90;3.70;;;1.60;99.90;;;;;;5007843;28;20215;-75
2023/01/23 04:43:17;;;;;;;3.80;3.55;;;1.50;99.90;;;;;;5012037;28;20637;-75
2023/01/23 04:45:44;;;;;;;4.65;4.32;;;1.40;99.90;;;;;;5027749;28;20247;-75
2023/01/23 04:48:13;;;;;;;4.78;4.47;;;1.40;99.90;;;;;;5010842;28;20283;-75
2023/01/23 04:50:40;;;;;;;3.72;3.53;;;1.40;99.90;;;;;;5026149;28;20223;-74
2023/01/23 04:53:07;;;;;;;4.45;4.15;;;1.50;99.90;;;;;;4989221;28;20200;-73
2023/01/23 04:55:36;;;;;;;4.20;3.80;;;1.50;99.90;;;;;;5025512;28;20711;-74
2023/01/23 04:58:03;;;;;;;4.85;4.55;;;1.60;99.90;;;;;;5011117;28;20776;-74
2023/01/23 05:00:30;;;;;;;4.78;4.47;;;1.60;99.90;;;;;;5026571;28;20239;-74
2023/01/23 05:02:58;;;;;;;4.22;4.03;;;1.60;99.90;;;;;;5028422;28;20227;-74
2023/01/23 05:05:26;;;;;;;4.05;3.85;;;1.70;99.90;;;;;;5027309;28;20317;-74
2023/01/23 05:07:53;;;;;;;4.20;3.90;;;1.70;99.90;;;;;;5011523;28;20285;-74
2023/01/23 05:10:21;;;;;;;4.13;3.92;;;1.70;99.90;;;;;;5026822;28;20374;-74
2023/01/23 05:12:49;;;;;;;5.18;4.78;;;1.80;99.90;;;;;;5011392;28;20253;-74
2023/01/23 05:15:17;;;;;;;4.45;4.15;;;1.80;99.90;;;;;;5026962;28;20299;-74
2023/01/23 05:17:44;;;;;;;4.20;3.90;;;1.80;99.90;;;;;;5026758;28;20219;-74
2023/01/23 05:20:11;;;;;;;4.72;4.43;;;1.80;99.90;;;;;;5027179;28;20303;-74
2023/01/23 05:22:50;;;;;;;4.80;4.45;;;1.80;99.90;;;;;;5027182;28;20273;-74
2023/01/23 05:25:18;;;;;;;4.93;4.53;;;1.80;99.90;;;;;;5008253;28;20215;-74
2023/01/23 05:27:45;;;;;;;4.43;4.13;;;1.80;99.90;;;;;;5026854;28;20298;-74
2023/01/23 05:30:15;;;;;;;4.78;4.47;;;1.80;99.90;;;;;;5027354;28;20726;-74
2023/01/23 05:32:42;;;;;;;4.13;3.92;;;1.70;99.90;;;;;;5008974;28;20247;-74
2023/01/23 05:35:10;;;;;;;4.70;4.40;;;1.80;99.90;;;;;;5025876;28;20277;-74
2023/01/23 05:37:37;;;;;;;4.45;4.15;;;1.80;99.90;;;;;;5008908;28;20880;-74
2023/01/23 05:40:07;;;;;;;4.53;4.22;;;1.80;99.90;;;;;;5024500;28;20235;-74
2023/01/23 05:42:34;;;;;;;4.30;4.00;;;1.80;99.90;;;;;;5024619;28;20191;-74
2023/01/23 05:45:01;;;;;;;4.28;4.03;;;1.80;99.90;;;;;;5026149;28;20313;-74
2023/01/23 05:47:30;;;;;;;4.65;4.35;;;1.80;99.90;;;;;;5026077;28;20281;-74
2023/01/23 05:49:57;;;;;;;4.57;4.28;;;1.80;99.90;;;;;;5025130;28;20248;-74
2023/01/23 05:52:24;;;;;;;4.40;4.10;;;1.80;99.90;;;;;;5025900;28;20528;-74
2023/01/23 05:54:51;;;;;;;4.20;3.90;;;1.80;99.90;;;;;;5033756;28;20268;-74
2023/01/23 05:57:18;;;;;;;4.18;3.97;;;1.90;99.90;;;;;;5031775;28;20212;-74
2023/01/23 05:59:45;;;;;;;4.50;4.10;;;1.90;99.90;;;;;;5026023;28;20277;-74
2023/01/23 06:02:12;;;;;;;4.10;3.83;;;1.90;99.90;;;;;;5025272;28;20207;-74
2023/01/23 06:04:41;;;;;;;4.03;3.83;;;1.90;99.90;;;;;;5029319;28;20247;-74
2023/01/23 06:07:09;;;;;;;4.40;4.10;;;1.90;99.90;;;;;;5027463;28;20787;-74
2023/01/23 06:09:36;;;;;;;4.47;4.18;;;1.90;99.90;;;;;;5028380;28;20334;-74
2023/01/23 06:12:03;;;;;;;4.25;4.00;;;1.90;99.90;;;;;;5029773;28;20310;-75
2023/01/23 06:14:30;;;;;;;4.25;3.95;;;1.80;99.90;;;;;;5032227;28;20230;-74
2023/01/23 06:16:58;;;;;;;4.50;4.30;;;1.80;99.90;;;;;;5027584;28;20239;-74
2023/01/23 06:19:25;;;;;;;5.15;4.85;;;1.80;99.90;;;;;;5030809;28;20255;-75
2023/01/23 06:21:54;;;;;;;5.30;4.90;;;1.80;99.90;;;;;;5034148;28;20745;-74
2023/01/23 06:24:21;;;;;;;4.63;4.32;;;1.70;99.90;;;;;;5029703;28;20283;-74
2023/01/23 06:26:48;;;;;;;4.70;4.40;;;1.70;99.90;;;;;;5027748;28;20268;-75
2023/01/23 06:29:15;;;;;;;4.80;4.50;;;1.70;99.90;;;;;;5029569;28;20382;-75
2023/01/23 06:31:42;;;;;;;4.75;4.45;;;1.70;99.90;;;;;;5031206;28;20796;-73
2023/01/23 06:34:11;;;;;;;4.15;3.85;;;1.70;99.90;;;;;;5029959;28;20230;-74
2023/01/23 06:36:39;;;;;;;4.63;4.32;;;1.70;99.90;;;;;;5009237;28;20943;-74
2023/01/23 06:39:08;;;;;;;4.43;4.13;;;1.70;99.90;;;;;;5026099;28;20200;-74
2023/01/23 06:41:35;;;;;;;5.28;4.85;;;1.70;99.90;;;;;;5029742;28;20297;-74
2023/01/23 06:44:03;;;;;;;7.28;5.45;;;1.70;99.90;;;;;;5012986;28;20273;-74
2023/01/23 06:46:29;;;;;;;5.05;4.75;;;1.70;99.90;;;;;;5029694;28;20302;-73
2023/01/23 06:48:57;;;;;;;4.47;4.18;;;1.70;99.90;;;;;;5030402;28;20295;-74
2023/01/23 06:51:24;;;;;;;4.13;3.83;;;1.70;99.90;;;;;;5027379;28;20709;-74
2023/01/23 06:53:51;;;;;;;4.53;4.22;;;1.70;99.90;;;;;;5027570;28;20223;-74
2023/01/23 06:56:19;;;;;;;4.30;4.10;;;1.70;99.90;;;;;;5030711;28;20317;-74
2023/01/23 06:58:47;;;;;;;3.97;3.72;;;1.70;99.90;;;;;;5026033;28;20287;-74
2023/01/23 07:01:17;;;;;;;4.20;3.90;;;1.80;99.90;;;;;;5009230;28;20385;-74
2023/01/23 07:03:44;;;;;;;4.82;4.53;;;1.80;99.90;;;;;;5010272;28;20199;-74
2023/01/23 07:06:13;;;;;;;4.60;4.30;;;1.90;99.90;;;;;;5029983;28;20673;-74
2023/01/23 07:08:41;;;;;;;4.32;4.03;;;1.80;99.90;;;;;;5031857;28;20239;-74
2023/01/23 07:11:09;;;;;;;4.50;4.20;;;1.90;99.90;;;;;;5011616;28;20218;-74
2023/01/23 07:13:38;;;;;;;4.45;4.15;;;1.90;99.90;;;;;;5025290;28;20288;-73
2023/01/23 07:16:05;;;;;;;4.80;4.50;;;1.90;99.90;;;;;;5007778;28;20310;-73
2023/01/23 07:18:32;;;;;;;4.35;4.05;;;1.90;99.90;;;;;;5026793;28;20211;-73
2023/01/23 07:21:00;;;;;;;4.40;4.10;;;1.90;99.90;;;;;;5010420;28;20220;-73
2023/01/23 07:23:27;;;;;;;4.55;4.20;;;1.90;99.90;;;;;;5007488;28;20192;-74
2023/01/23 07:25:59;;;;;;;4.47;4.18;;;1.90;99.90;;;;;;5027355;28;20829;-75
2023/01/23 07:28:26;;;;;;;4.30;3.90;;;1.90;99.90;;;;;;5010401;28;20752;-75
2023/01/23 07:30:55;;;;;;;4.07;3.85;;;1.90;99.90;;;;;;5020660;28;20302;-74
2023/01/23 07:33:22;;;;;;;5.05;4.75;;;2.00;99.90;;;;;;5025610;28;20680;-74
2023/01/23 07:35:49;;;;;;;4.38;4.07;;;2.10;99.90;;;;;;5009603;28;20215;-74
2023/01/23 07:38:16;;;;;;;5.32;4.93;;;2.10;99.90;;;;;;5024566;28;20286;-74
2023/01/23 07:40:44;;;;;;;5.07;4.75;;;2.20;99.90;;;;;;5024349;28;20285;-75
2023/01/23 07:43:11;;;;;;;4.25;3.95;;;2.20;99.90;;;;;;5027097;28;20227;-73
2023/01/23 07:45:38;;;;;;;4.43;4.13;;;2.20;99.90;;;;;;5027110;28;20740;-74
2023/01/23 07:48:07;;;;;;;4.65;4.30;;;2.20;99.90;;;;;;5026617;28;20306;-74
2023/01/23 07:50:34;;;;;;;4.30;4.00;;;2.20;99.90;;;;;;5025790;28;20440;-73
2023/01/23 07:53:02;;;;;;;4.88;4.47;;;2.30;99.90;;;;;;5025019;28;20222;-74
2023/01/23 07:55:29;;;;;;;4.68;4.38;;;2.30;99.90;;;;;;5025344;28;20250;-74
2023/01/23 07:57:56;;;;;;;5.10;4.70;;;2.30;99.90;;;;;;5026427;28;20310;-74
2023/01/23 08:00:24;;;;;;;5.43;4.95;;;2.30;99.90;;;;;;5026321;28;20680;-74
2023/01/23 08:02:51;;;;;;;5.20;4.80;;;2.40;99.90;;;;;;5005952;28;20245;-74
2023/01/23 08:05:20;;;;;;;5.05;4.65;;;2.40;99.90;;;;;;5024306;28;20307;-73
2023/01/23 08:07:47;;;;;;;4.32;4.00;;;2.40;99.90;;;;;;5026549;28;20297;-73
2023/01/23 08:10:14;;;;;;;4.00;3.70;;;2.40;99.90;;;;;;5025221;28;20572;-74
2023/01/23 08:12:41;;;;;;;4.75;4.45;;;2.40;99.90;;;;;;5009141;28;20212;-74
2023/01/23 08:15:09;;;;;;;4.82;4.43;;;2.50;99.90;;;;;;5027042;28;20247;-74
2023/01/23 08:17:36;;;;;;;4.03;3.72;;;2.50;99.90;;;;;;5009396;28;20307;-73
2023/01/23 08:20:04;;;;;;;4.63;4.32;;;2.50;99.90;;;;;;5024882;28;20653;-74
2023/01/23 08:22:33;;;;;;;5.43;5.03;;;2.50;99.90;;;;;;5027072;28;20350;-73
2023/01/23 08:25:00;;;;;;;4.82;4.53;;;2.50;99.90;;;;;;5026341;28;20299;-73
2023/01/23 08:27:27;;;;;;;4.80;4.50;;;2.50;99.90;;;;;;5005614;28;20223;-72
2023/01/23 08:29:54;;;;;;;4.63;4.20;;;2.50;99.90;;;;;;5028571;28;20250;-73
2023/01/23 08:32:22;;;;;;;4.60;4.30;;;2.40;99.90;;;;;;5024894;28;20251;-73
2023/01/23 08:34:48;;;;;;;4.47;4.18;;;2.50;99.90;;;;;;5022815;28;20222;-73
2023/01/23 08:37:16;;;;;;;3.97;3.67;;;2.50;99.90;;;;;;5026033;28;20313;-73
2023/01/23 08:39:45;;;;;;;4.75;4.35;;;2.50;99.90;;;;;;5026007;28;20223;-73
2023/01/23 08:42:12;;;;;;;4.32;4.03;;;2.60;99.90;;;;;;5026624;28;20235;-73
2023/01/23 08:44:39;;;;;;;4.45;4.20;;;2.60;99.90;;;;;;5026221;28;20228;-74
2023/01/23 08:47:06;;;;;;;4.28;4.03;;;2.60;99.90;;;;;;5024150;28;20266;-73
2023/01/23 08:49:34;;;;;;;4.00;3.70;;;2.70;99.90;;;;;;5027721;28;20219;-73
2023/01/23 08:52:01;;;;;;;4.03;3.72;;;2.80;99.90;;;;;;5033059;28;20217;-73
2023/01/23 08:54:28;;;;;;;4.72;4.43;;;2.80;99.90;;;;;;5026342;28;20234;-73
2023/01/23 08:56:57;;;;;;;4.03;3.78;;;2.90;99.90;;;;;;5008975;28;20211;-74
2023/01/23 08:59:24;;;;;;;4.22;3.83;;;2.80;99.90;;;;;;5005269;28;20226;-74
2023/01/23 09:01:51;;;;;;;3.83;3.63;;;2.80;99.90;;;;;;5024313;28;20231;-74
2023/01/23 09:04:18;;;;;;;3.95;3.75;;;2.90;99.90;;;;;;5024399;28;20295;-74
2023/01/23 09:06:45;;;;;;;3.60;3.40;;;2.90;99.90;;;;;;5025341;28;20298;-73
2023/01/23 09:09:13;;;;;;;3.97;3.78;;;2.90;99.90;;;;;;5024437;28;20239;-75
2023/01/23 09:11:40;;;;;;;3.97;3.78;;;3.00;99.90;;;;;;5007027;28;20237;-74
2023/01/23 09:14:09;;;;;;;4.10;3.90;;;3.00;99.90;;;;;;5007775;28;20223;-73
2023/01/23 09:16:38;;;;;;;3.33;3.13;;;3.10;99.90;;;;;;5007266;28;20609;-74
2023/01/23 09:19:05;;;;;;;4.07;3.78;;;3.10;99.90;;;;;;5024079;28;20195;-73
2023/01/23 09:21:32;;;;;;;4.28;4.00;;;3.10;99.90;;;;;;5023427;28;20829;-73
2023/01/23 09:23:59;;;;;;;3.58;3.40;;;3.20;99.90;;;;;;5022598;28;20287;-73
2023/01/23 09:26:26;;;;;;;4.25;3.90;;;3.20;99.90;;;;;;5023587;28;20330;-73
2023/01/23 09:28:54;;;;;;;4.13;3.83;;;3.20;99.90;;;;;;5023648;28;20291;-73
2023/01/23 09:31:23;;;;;;;4.45;4.10;;;3.30;99.90;;;;;;5020856;28;20223;-73
2023/01/23 09:33:51;;;;;;;4.65;4.32;;;3.30;99.90;;;;;;5021929;28;20216;-73
2023/01/23 09:36:18;;;;;;;4.65;4.25;;;3.30;99.90;;;;;;5024800;28;20871;-73
2023/01/23 09:38:47;;;;;;;4.80;4.50;;;3.40;99.90;;;;;;5023705;28;20583;-73
2023/01/23 09:41:18;;;;;;;4.65;4.15;;;3.40;99.90;;;;;;5002593;28;20227;-73
2023/01/23 09:43:51;;;;;;;5.15;4.78;;;3.40;99.90;;;;;;5003863;28;20273;-73
2023/01/23 09:46:24;;;;;;;5.10;4.70;;;3.50;99.90;;;;;;5018185;28;20247;-73
2023/01/23 09:48:57;;;;;;;4.03;3.72;;;3.50;99.90;;;;;;5021202;28;20235;-73
2023/01/23 09:51:27;;;;;;;4.50;4.20;;;3.60;99.90;;;;;;5021018;28;20568;-73
2023/01/23 09:53:59;;;;;;;4.70;4.32;;;3.60;99.90;;;;;;5018892;28;20764;-73
2023/01/23 09:56:34;;;;;;;4.70;4.35;;;3.70;99.90;;;;;;5021981;28;20901;-73
2023/01/23 09:59:11;;;;;;;5.60;5.20;;;3.70;99.90;;;;;;5020297;28;20195;-73
2023/01/23 10:01:40;;;;;;;5.45;5.05;;;3.70;99.90;;;;;;5017607;28;20696;-73
2023/01/23 10:04:11;;;;;;;4.45;4.15;;;3.70;99.90;;;;;;5020655;28;20253;-73
2023/01/23 10:07:01;;;;;;;5.05;4.65;;;3.80;99.90;;;;;;5020060;28;20318;-74
2023/01/23 10:09:45;;;;;;;4.65;4.35;;;3.90;99.90;;;;;;4991374;28;20191;-73
2023/01/23 10:12:20;;;;;;;4.70;4.40;;;3.90;99.90;;;;;;5019033;28;20320;-73
2023/01/23 10:15:20;;;;;;;4.50;4.20;;;4.00;99.90;;;;;;5021968;28;20317;-73
2023/01/23 10:17:57;;;;;;;4.22;4.03;;;4.00;99.90;;;;;;5023472;28;20223;-72
2023/01/23 10:20:46;;;;;;;4.97;4.63;;;4.10;99.90;;;;;;5016832;28;20219;-72
2023/01/23 10:23:30;;;;;;;4.78;4.38;;;4.10;99.90;;;;;;5004786;28;20192;-72
2023/01/23 10:25:58;;;;;;;4.80;4.50;;;4.10;99.90;;;;;;5023290;28;20219;-73
2023/01/23 10:28:34;;;;;;;4.90;4.60;;;4.10;99.90;;;;;;5023514;28;20300;-73
2023/01/23 10:31:05;;;;;;;7.05;4.60;;;4.10;99.90;;;;;;5007574;28;20247;-73
2023/01/23 10:33:41;;;;;;;4.60;4.30;;;4.20;99.90;;;;;;5023888;28;20219;-72
2023/01/23 10:36:20;;;;;;;4.10;3.80;;;4.20;99.90;;;;;;5021311;28;20227;-74
2023/01/23 10:38:56;;;;;;;3.88;3.67;;;4.20;99.90;;;;;;5021553;28;20207;-74
2023/01/23 10:41:23;;;;;;;3.88;3.67;;;4.30;99.90;;;;;;5020739;28;20246;-74
2023/01/23 10:43:51;;;;;;;3.75;3.55;;;4.30;99.90;;;;;;5025190;28;20774;-74
2023/01/23 10:46:20;;;;;;;5.00;4.60;;;4.40;99.90;;;;;;5022322;28;20254;-74
2023/01/23 10:48:50;;;;;;;3.92;3.70;;;4.40;99.90;;;;;;5021442;28;20223;-75
2023/01/23 10:51:43;;;;;;;3.80;3.60;;;4.50;99.90;;;;;;5024099;28;20238;-75
2023/01/23 10:54:14;;;;;;;3.97;3.67;;;4.60;99.90;;;;;;5019328;28;20215;-76
2023/01/23 10:56:52;;;;;;;4.07;3.78;;;4.60;99.90;;;;;;5024596;28;20362;-75
2023/01/23 10:59:29;;;;;;;5.18;4.18;;;4.60;99.90;;;;;;5010281;28;20198;-75
2023/01/23 11:02:03;;;;;;;4.90;4.60;;;4.50;99.90;;;;;;5028161;28;20207;-74
2023/01/23 11:04:36;;;;;;;4.60;4.20;;;4.40;99.90;;;;;;5025046;28;20874;-74
2023/01/23 11:07:07;;;;;;;4.88;4.55;;;4.30;99.90;;;;;;5027312;28;20219;-75
2023/01/23 11:09:46;;;;;;;4.57;4.28;;;4.20;99.90;;;;;;5022181;28;20215;-75
2023/01/23 11:12:17;;;;;;;4.95;4.55;;;4.20;99.90;;;;;;5025567;28;20234;-75
2023/01/23 11:14:44;;;;;;;6.03;5.53;;;4.30;99.90;;;;;;5025383;28;20226;-75
2023/01/23 11:17:21;;;;;;;7.45;6.70;;;4.30;99.90;;;;;;5024848;28;20310;-74
2023/01/23 11:19:52;;;;;;;6.45;5.80;;;4.30;99.90;;;;;;5025961;28;20246;-75
2023/01/23 11:22:32;;;;;;;5.53;5.13;;;4.40;99.90;;;;;;5025627;28;20199;-75
2023/01/23 11:25:02;;;;;;;5.32;4.93;;;4.30;99.90;;;;;;5023508;28;20956;-75
2023/01/23 11:27:30;;;;;;;6.90;6.20;;;4.30;99.90;;;;;;5024221;28;20307;-75
2023/01/23 11:30:44;;;;;;;17.73;12.27;;;4.40;99.90;;;;;;5025308;28;20294;-75
2023/01/23 11:33:29;;;;;;;11.07;9.73;;;4.40;99.90;;;;;;4949123;28;20348;-75
2023/01/23 11:36:07;;;;;;;9.23;7.78;;;4.40;99.90;;;;;;4946405;28;20325;-76
2023/01/23 11:38:40;;;;;;;7.00;6.38;;;4.50;99.90;;;;;;4998491;28;20306;-74
2023/01/23 11:41:11;;;;;;;6.47;5.85;;;4.50;99.90;;;;;;5024965;28;20262;-75
2023/01/23 11:43:38;;;;;;;6.65;6.05;;;4.50;99.90;;;;;;5008313;28;20238;-75
2023/01/23 11:46:35;;;;;;;9.23;8.32;;;4.40;99.90;;;;;;5028135;28;20410;-75
2023/01/23 11:49:17;;;;;;;9.82;8.77;;;4.50;99.90;;;;;;5025210;28;20295;-74
2023/01/23 11:51:52;;;;;;;8.07;7.30;;;4.40;99.90;;;;;;5025121;28;20325;-75
2023/01/23 11:54:39;;;;;;;6.20;5.70;;;4.40;99.90;;;;;;5021201;28;20309;-75
2023/01/23 11:57:16;;;;;;;6.60;6.00;;;4.40;99.90;;;;;;5022022;28;21058;-74
2023/01/23 11:59:52;;;;;;;5.90;5.40;;;4.40;99.90;;;;;;5007478;28;20778;-75
2023/01/23 12:02:59;;;;;;;6.35;5.85;;;4.40;99.90;;;;;;5025618;28;20285;-75
2023/01/23 12:05:51;;;;;;;5.50;5.00;;;4.40;99.90;;;;;;5012095;28;20247;-75
2023/01/23 12:08:31;;;;;;;11.63;9.23;;;4.50;99.90;;;;;;5027748;28;20286;-74
2023/01/23 12:11:11;;;;;;;12.07;9.00;;;4.50;99.90;;;;;;5026579;28;20219;-74
2023/01/23 12:14:03;;;;;;;8.13;6.57;;;4.60;99.90;;;;;;5028205;28;20218;-74
2023/01/23 12:16:43;;;;;;;7.65;6.10;;;4.60;99.90;;;;;;5006978;28;20632;-75
2023/01/23 12:19:26;;;;;;;6.80;6.10;;;4.70;99.90;;;;;;5013555;28;20198;-76
2023/01/23 12:22:00;;;;;;;8.30;6.60;;;4.60;99.90;;;;;;5021013;28;20228;-73
2023/01/23 12:24:48;;;;;;;7.25;6.65;;;4.60;99.90;;;;;;5021112;28;20305;-74
2023/01/23 12:27:27;;;;;;;6.18;5.57;;;4.70;99.90;;;;;;5022993;28;20306;-75
2023/01/23 12:30:20;;;;;;;5.47;5.07;;;4.70;99.90;;;;;;5006640;28;20226;-74
2023/01/23 12:32:59;;;;;;;4.95;4.55;;;4.60;99.90;;;;;;5014005;28;20279;-74
2023/01/23 12:35:43;;;;;;;4.72;4.32;;;4.60;99.90;;;;;;5025302;28;20285;-74
2023/01/23 12:38:20;;;;;;;5.05;4.65;;;4.70;99.90;;;;;;5018443;28;20315;-75
2023/01/23 12:40:53;;;;;;;4.57;4.28;;;4.70;99.90;;;;;;5022583;28;20253;-75
2023/01/23 12:43:34;;;;;;;4.88;4.55;;;4.70;99.90;;;;;;5021467;28;20198;-76
2023/01/23 12:46:06;;;;;;;5.10;4.60;;;4.80;99.90;;;;;;5023264;28;20322;-75
2023/01/23 12:48:41;;;;;;;4.68;4.28;;;4.90;99.90;;;;;;5021138;28;20264;-75
2023/01/23 12:51:14;;;;;;;5.65;5.22;;;5.00;99.90;;;;;;5008163;28;20246;-75
2023/01/23 12:53:43;;;;;;;4.93;4.53;;;5.00;99.90;;;;;;5023833;28;20972;-75
2023/01/23 12:56:17;;;;;;;5.13;4.72;;;5.00;99.90;;;;;;5020336;28;20219;-75
2023/01/23 12:58:51;;;;;;;4.80;4.40;;;5.00;99.90;;;;;;5025314;28;20230;-73
2023/01/23 13:01:31;;;;;;;4.38;4.07;;;4.90;99.90;;;;;;5007614;28;20261;-74
2023/01/23 13:04:08;;;;;;;4.57;4.18;;;5.00;99.90;;;;;;5024219;28;20231;-73
2023/01/23 13:07:04;;;;;;;6.78;6.10;;;5.00;99.90;;;;;;5022652;28;20254;-74
2023/01/23 13:09:46;;;;;;;5.80;5.30;;;5.00;99.90;;;;;;4995388;28;20744;-73
2023/01/23 13:12:20;;;;;;;4.72;4.32;;;5.00;99.90;;;;;;5028190;28;20721;-74
2023/01/23 13:14:48;;;;;;;5.05;4.65;;;5.00;99.90;;;;;;5028109;28;20225;-73
2023/01/23 13:17:36;;;;;;;4.65;4.30;;;5.00;99.90;;;;;;5024228;28;20305;-74
2023/01/23 13:23:35;;;;;;;4.25;3.95;;;5.20;99.90;;;;;;5021590;28;20240;-74
2023/01/23 13:26:30;;;;;;;4.88;4.47;;;5.20;99.90;;;;;;4999833;28;20220;-74